Time;durP1;ratioP1;P1;durP2;ratioP2;P2;SDS_P1;SDS_P2;PMS_P1;PMS_P2;Temp;Humidity;BMP_temperature;BMP_pressure;BME280_temperature;BME280_humidity;BME280_pressure;Samples;Min_cycle;Max_cycle;Signal;HPM_P1;HPM_P2
2021/04/28 00:01:52;;;;;;;6.13;2.05;;;4.60;99.90;;;;;;4944468;28;20054;-63
2021/04/28 00:04:18;;;;;;;3.17;1.80;;;4.50;99.90;;;;;;4941567;28;20047;-64
2021/04/28 00:06:49;;;;;;;3.28;1.50;;;4.50;99.90;;;;;;4944540;28;20101;-62
2021/04/28 00:09:20;;;;;;;5.05;1.98;;;4.50;99.90;;;;;;4959779;28;20055;-63
2021/04/28 00:11:46;;;;;;;2.42;1.73;;;4.50;99.90;;;;;;4963400;28;20050;-64
2021/04/28 00:14:13;;;;;;;2.13;1.50;;;4.60;99.90;;;;;;4961983;28;20508;-63
2021/04/28 00:16:39;;;;;;;4.05;1.83;;;4.60;99.90;;;;;;4966924;28;20054;-66
2021/04/28 00:19:06;;;;;;;2.58;1.88;;;4.60;99.90;;;;;;4959832;28;20046;-64
2021/04/28 00:21:32;;;;;;;2.40;1.98;;;4.60;99.90;;;;;;4962440;28;20059;-64
2021/04/28 00:23:59;;;;;;;5.10;1.92;;;4.60;99.90;;;;;;4962880;28;20066;-65
2021/04/28 00:26:25;;;;;;;2.35;1.30;;;4.60;99.90;;;;;;4963723;28;20042;-62
2021/04/28 00:28:52;;;;;;;4.72;1.80;;;4.60;99.90;;;;;;4961794;28;20105;-63
2021/04/28 00:31:19;;;;;;;4.03;1.70;;;4.50;99.90;;;;;;4944990;28;20489;-64
2021/04/28 00:33:45;;;;;;;2.35;1.75;;;4.50;99.90;;;;;;4962541;28;20130;-63
2021/04/28 00:36:12;;;;;;;6.05;2.15;;;4.50;99.90;;;;;;4955996;28;20477;-64
2021/04/28 00:38:40;;;;;;;2.72;2.17;;;4.50;99.90;;;;;;4961065;28;20149;-64
2021/04/28 00:41:08;;;;;;;3.97;2.00;;;4.60;99.90;;;;;;4964041;28;20050;-64
2021/04/28 00:43:36;;;;;;;3.85;2.00;;;4.60;99.90;;;;;;4960782;28;20058;-64
2021/04/28 00:46:04;;;;;;;3.15;2.25;;;4.60;99.90;;;;;;4963958;28;20053;-63
2021/04/28 00:48:31;;;;;;;2.10;1.83;;;4.60;99.90;;;;;;4973486;28;20058;-63
2021/04/28 00:50:57;;;;;;;3.78;1.63;;;4.60;99.90;;;;;;4966652;28;20080;-62
2021/04/28 00:53:25;;;;;;;3.00;1.85;;;4.60;99.90;;;;;;4942661;28;20050;-64
2021/04/28 00:55:54;;;;;;;3.60;1.90;;;4.60;99.90;;;;;;4965478;28;20042;-63
2021/04/28 00:58:22;;;;;;;2.30;1.85;;;4.60;99.90;;;;;;4961542;28;20145;-63
2021/04/28 01:00:50;;;;;;;5.10;1.92;;;4.60;99.90;;;;;;4946256;28;20055;-64
2021/04/28 01:03:26;;;;;;;3.00;2.13;;;4.60;99.90;;;;;;4959056;28;20098;-65
2021/04/28 01:06:01;;;;;;;3.15;1.63;;;4.60;99.90;;;;;;4975141;28;20421;-64
2021/04/28 01:08:29;;;;;;;3.47;2.05;;;4.60;99.90;;;;;;4960161;28;20086;-64
2021/04/28 01:10:57;;;;;;;2.42;1.70;;;4.50;99.90;;;;;;4960548;28;20675;-63
2021/04/28 01:13:24;;;;;;;2.75;1.85;;;4.50;99.90;;;;;;4958282;28;20129;-63
2021/04/28 01:15:52;;;;;;;2.53;1.77;;;4.50;99.90;;;;;;4946215;28;20062;-63
2021/04/28 01:18:20;;;;;;;3.17;1.60;;;4.50;99.90;;;;;;4946119;28;20065;-63
2021/04/28 01:20:47;;;;;;;7.07;2.05;;;4.50;99.90;;;;;;4969418;28;20050;-62
2021/04/28 01:23:16;;;;;;;2.85;1.63;;;4.50;99.90;;;;;;4963178;28;20061;-63
2021/04/28 01:25:44;;;;;;;;;;;4.50;99.90;;;;;;4952563;28;20058;-63
2021/04/28 01:28:15;;;;;;;5.78;1.85;;;4.50;99.90;;;;;;4947809;28;20020;-63
2021/04/28 01:30:52;;;;;;;6.35;2.65;;;4.40;99.90;;;;;;4969589;28;20046;-64
2021/04/28 01:33:38;;;;;;;2.15;1.55;;;4.40;99.90;;;;;;4943934;28;20473;-62
2021/04/28 01:36:11;;;;;;;4.50;1.65;;;4.50;99.90;;;;;;4965613;28;20058;-63
2021/04/28 01:38:42;;;;;;;1.30;1.17;;;4.40;99.90;;;;;;4964911;28;20138;-64
2021/04/28 01:41:09;;;;;;;3.15;1.88;;;4.50;99.90;;;;;;4964602;28;20061;-66
2021/04/28 01:43:41;;;;;;;4.18;1.88;;;4.50;99.90;;;;;;4961571;28;20467;-63
2021/04/28 01:46:10;;;;;;;2.83;1.52;;;4.50;99.90;;;;;;4960829;28;20050;-65
2021/04/28 01:48:40;;;;;;;4.40;1.40;;;4.50;99.90;;;;;;4964976;28;20467;-65
2021/04/28 01:51:09;;;;;;;3.33;1.23;;;4.50;99.90;;;;;;4952141;28;20150;-63
2021/04/28 01:53:36;;;;;;;2.65;1.30;;;4.60;99.90;;;;;;4962647;28;20045;-64
2021/04/28 01:56:04;;;;;;;1.50;1.20;;;4.60;99.90;;;;;;4966592;28;20169;-64
2021/04/28 01:58:51;;;;;;;3.40;1.27;;;4.60;99.90;;;;;;4963683;28;20062;-61
2021/04/28 02:01:25;;;;;;;1.65;1.35;;;4.70;99.90;;;;;;4945886;28;20049;-64
2021/04/28 02:03:55;;;;;;;1.23;0.90;;;4.70;99.90;;;;;;4965828;28;20509;-65
2021/04/28 02:06:23;;;;;;;2.08;1.33;;;4.70;99.90;;;;;;4964766;28;20133;-63
2021/04/28 02:08:50;;;;;;;3.33;0.95;;;4.70;99.90;;;;;;4944907;28;21541;-64
2021/04/28 02:11:17;;;;;;;1.02;0.90;;;4.70;99.90;;;;;;4967884;28;20098;-63
2021/04/28 02:13:47;;;;;;;1.08;1.02;;;4.70;99.90;;;;;;4945279;28;20386;-63
2021/04/28 02:16:28;;;;;;;2.25;1.42;;;4.70;99.90;;;;;;4946121;28;20043;-64
2021/04/28 02:18:58;;;;;;;2.45;1.35;;;4.80;99.90;;;;;;4981072;28;20045;-62
2021/04/28 02:21:26;;;;;;;1.83;1.50;;;4.80;99.90;;;;;;4961387;28;20059;-62
2021/04/28 02:24:14;;;;;;;4.82;1.48;;;4.80;99.90;;;;;;4947940;28;20580;-64
2021/04/28 02:26:42;;;;;;;1.52;0.98;;;4.80;99.90;;;;;;4946448;28;20053;-62
2021/04/28 02:29:09;;;;;;;1.90;1.38;;;4.80;99.90;;;;;;4946748;28;20129;-64
2021/04/28 02:31:37;;;;;;;1.63;1.35;;;4.80;99.90;;;;;;4960278;28;20082;-62
2021/04/28 02:34:07;;;;;;;1.00;0.90;;;4.80;99.90;;;;;;4967322;28;20408;-62
2021/04/28 02:36:55;;;;;;;1.60;1.20;;;4.80;99.90;;;;;;4945335;28;20057;-63
2021/04/28 02:39:49;;;;;;;1.45;0.88;;;4.80;99.90;;;;;;4966984;28;20141;-63
2021/04/28 02:42:15;;;;;;;2.10;1.27;;;4.80;99.90;;;;;;4947104;28;20054;-64
2021/04/28 02:44:46;;;;;;;1.27;0.75;;;4.80;99.90;;;;;;4949360;28;20113;-63
2021/04/28 02:47:14;;;;;;;2.88;0.90;;;4.80;99.90;;;;;;4944823;28;20046;-65
2021/04/28 02:49:45;;;;;;;1.42;1.13;;;4.80;99.90;;;;;;4958962;28;20096;-65
2021/04/28 02:52:29;;;;;;;1.48;1.38;;;4.70;99.90;;;;;;4948314;28;20109;-63
2021/04/28 02:54:56;;;;;;;4.68;1.52;;;4.70;99.90;;;;;;4946967;28;20505;-62
2021/04/28 02:57:23;;;;;;;1.45;1.20;;;4.80;99.90;;;;;;4963855;28;20482;-65
2021/04/28 02:59:53;;;;;;;1.67;0.98;;;4.80;99.90;;;;;;4964136;28;20058;-62
2021/04/28 03:02:23;;;;;;;1.95;0.88;;;4.70;99.90;;;;;;4947309;28;20417;-65
2021/04/28 03:04:51;;;;;;;2.25;1.40;;;4.70;99.90;;;;;;4945974;28;20136;-60
2021/04/28 03:07:41;;;;;;;1.15;0.90;;;4.60;99.90;;;;;;4958782;28;20051;-62
2021/04/28 03:10:10;;;;;;;5.28;1.27;;;4.60;99.90;;;;;;4963416;28;20043;-68
2021/04/28 03:12:39;;;;;;;4.63;1.63;;;4.60;99.90;;;;;;4961543;28;20057;-63
2021/04/28 03:15:10;;;;;;;3.88;1.35;;;4.50;99.90;;;;;;4942705;28;20517;-65
2021/04/28 03:17:38;;;;;;;1.48;0.90;;;4.50;99.90;;;;;;4946863;28;20493;-62
2021/04/28 03:20:09;;;;;;;3.85;1.48;;;4.40;99.90;;;;;;4944360;28;20054;-62
2021/04/28 03:22:42;;;;;;;3.00;1.13;;;4.40;99.90;;;;;;4963442;28;20047;-62
2021/04/28 03:25:11;;;;;;;1.48;1.13;;;4.30;99.90;;;;;;4947528;28;20043;-64
2021/04/28 03:27:39;;;;;;;1.53;1.03;;;4.30;99.90;;;;;;4943751;28;20054;-65
2021/04/28 03:30:08;;;;;;;3.10;0.93;;;4.20;99.90;;;;;;4959674;28;20054;-60
2021/04/28 03:32:35;;;;;;;7.82;1.45;;;4.20;99.90;;;;;;4960506;28;20121;-64
2021/04/28 03:35:22;;;;;;;1.35;1.10;;;4.20;99.90;;;;;;4931403;28;20058;-64
2021/04/28 03:38:08;;;;;;;1.95;1.40;;;4.20;99.90;;;;;;4959828;28;20046;-64
2021/04/28 03:40:36;;;;;;;2.45;1.50;;;4.20;99.90;;;;;;4945832;28;20050;-63
2021/04/28 03:43:04;;;;;;;4.25;1.83;;;4.20;99.90;;;;;;4944748;28;20508;-64
2021/04/28 03:45:49;;;;;;;2.53;1.77;;;4.10;99.90;;;;;;4963289;28;20119;-65
2021/04/28 03:48:23;;;;;;;2.25;1.60;;;4.10;99.90;;;;;;4944727;28;20154;-63
2021/04/28 03:50:50;;;;;;;2.03;1.60;;;4.10;99.90;;;;;;4961496;28;20047;-62
2021/04/28 03:53:17;;;;;;;2.40;1.67;;;4.10;99.90;;;;;;4960621;28;20326;-62
2021/04/28 03:55:50;;;;;;;2.15;1.38;;;4.10;99.90;;;;;;4948384;28;20404;-63
2021/04/28 03:58:16;;;;;;;3.40;1.30;;;4.10;99.90;;;;;;4963888;28;20051;-62
2021/04/28 04:00:47;;;;;;;1.77;1.40;;;4.20;99.90;;;;;;4961078;28;20540;-62
2021/04/28 04:03:30;;;;;;;1.85;1.60;;;4.20;99.90;;;;;;4941485;28;20058;-63
2021/04/28 04:06:16;;;;;;;4.50;1.60;;;4.20;99.90;;;;;;4961164;28;20053;-63
2021/04/28 04:08:55;;;;;;;1.52;1.38;;;4.20;99.90;;;;;;4945015;28;20486;-61
2021/04/28 04:11:24;;;;;;;2.03;1.80;;;4.30;99.90;;;;;;4947805;28;20050;-62
2021/04/28 04:13:51;;;;;;;2.65;1.77;;;4.30;99.90;;;;;;4960618;28;20629;-63
2021/04/28 04:16:18;;;;;;;4.10;1.73;;;4.30;99.90;;;;;;4967070;28;20156;-65
2021/04/28 04:18:45;;;;;;;1.90;1.10;;;4.30;99.90;;;;;;4945858;28;20417;-63
2021/04/28 04:21:11;;;;;;;3.45;1.40;;;4.30;99.90;;;;;;4946522;28;21015;-62
2021/04/28 04:23:38;;;;;;;3.28;1.60;;;4.40;99.90;;;;;;4941623;28;21756;-63
2021/04/28 04:26:15;;;;;;;5.18;1.58;;;4.40;99.90;;;;;;4962620;28;20113;-65
2021/04/28 04:29:00;;;;;;;1.80;1.65;;;4.40;99.90;;;;;;4959934;28;20338;-62
2021/04/28 04:31:54;;;;;;;4.38;1.42;;;4.40;99.90;;;;;;4953738;28;21109;-60
2021/04/28 04:34:57;;;;;;;2.33;1.67;;;4.40;99.90;;;;;;4884886;29;20139;-62
2021/04/28 04:37:42;;;;;;;1.45;1.35;;;4.40;99.90;;;;;;4954459;28;20070;-62
2021/04/28 04:40:23;;;;;;;2.60;1.70;;;4.40;99.90;;;;;;4965563;28;20070;-63
2021/04/28 04:43:23;;;;;;;2.92;1.70;;;4.50;99.90;;;;;;4937152;28;20129;-64
2021/04/28 04:46:08;;;;;;;1.67;1.42;;;4.50;99.90;;;;;;4963205;28;20058;-62
2021/04/28 04:48:34;;;;;;;3.92;1.77;;;4.60;99.90;;;;;;4960755;28;20064;-64
2021/04/28 04:51:01;;;;;;;1.65;1.33;;;4.60;99.90;;;;;;4960281;28;20428;-66
2021/04/28 04:53:27;;;;;;;2.08;1.55;;;4.60;99.90;;;;;;4964845;28;20168;-62
2021/04/28 04:55:54;;;;;;;1.73;1.50;;;4.50;99.90;;;;;;4965424;28;20555;-63
2021/04/28 04:58:21;;;;;;;2.20;1.50;;;4.50;99.90;;;;;;4964720;28;20046;-65
2021/04/28 05:00:47;;;;;;;8.60;1.75;;;4.50;99.90;;;;;;4968219;28;20058;-62
2021/04/28 05:03:13;;;;;;;4.45;1.95;;;4.50;99.90;;;;;;4963816;28;20043;-62
2021/04/28 05:05:40;;;;;;;2.35;1.60;;;4.50;99.90;;;;;;4967280;28;20499;-62
2021/04/28 05:08:07;;;;;;;1.40;1.00;;;4.50;99.90;;;;;;4964439;28;20047;-62
2021/04/28 05:10:33;;;;;;;2.30;1.55;;;4.60;99.90;;;;;;4966664;28;20464;-62
2021/04/28 05:13:00;;;;;;;5.97;1.38;;;4.60;99.90;;;;;;4965444;28;20058;-62
2021/04/28 05:15:26;;;;;;;3.38;1.15;;;4.70;99.90;;;;;;4963865;28;20098;-63
2021/04/28 05:17:58;;;;;;;3.80;1.35;;;4.80;99.90;;;;;;4965037;28;20066;-62
2021/04/28 05:20:25;;;;;;;1.25;1.05;;;4.90;99.90;;;;;;4963273;28;20559;-63
2021/04/28 05:22:52;;;;;;;3.80;1.38;;;5.00;99.90;;;;;;4963864;28;20042;-63
2021/04/28 05:25:37;;;;;;;2.55;1.40;;;5.10;99.90;;;;;;4964466;28;20161;-63
2021/04/28 05:28:04;;;;;;;2.67;1.27;;;5.20;99.90;;;;;;4965827;28;20477;-62
2021/04/28 05:30:30;;;;;;;2.78;1.50;;;5.30;99.90;;;;;;4964942;28;20047;-64
2021/04/28 05:32:57;;;;;;;5.57;1.83;;;5.40;99.90;;;;;;4965378;28;20047;-66
2021/04/28 05:35:24;;;;;;;1.63;1.40;;;5.40;99.90;;;;;;4962715;28;20046;-62
2021/04/28 05:37:51;;;;;;;2.53;1.60;;;5.50;99.90;;;;;;4962565;28;20062;-64
2021/04/28 05:40:18;;;;;;;8.18;1.85;;;5.60;99.90;;;;;;4967052;28;20428;-66
2021/04/28 05:42:45;;;;;;;4.00;2.55;;;5.60;99.90;;;;;;4963870;28;20126;-63
2021/04/28 05:45:13;;;;;;;2.83;1.40;;;5.70;99.90;;;;;;4964226;28;20062;-65
2021/04/28 05:47:39;;;;;;;2.83;1.73;;;5.80;99.90;;;;;;4961346;28;20097;-66
2021/04/28 05:50:09;;;;;;;8.13;2.10;;;5.80;99.90;;;;;;4964403;28;20119;-66
2021/04/28 05:52:36;;;;;;;1.80;1.70;;;5.90;99.90;;;;;;4962297;28;20137;-66
2021/04/28 05:55:04;;;;;;;1.92;1.30;;;5.90;99.90;;;;;;4964961;28;20050;-65
2021/04/28 05:57:33;;;;;;;1.88;1.48;;;5.90;99.90;;;;;;4945758;28;20182;-63
2021/04/28 06:00:01;;;;;;;3.65;2.20;;;5.90;99.90;;;;;;4967382;28;20063;-62
2021/04/28 06:02:27;;;;;;;3.38;1.90;;;5.90;99.90;;;;;;1289974;28;10001892;-63
2021/04/28 06:04:54;;;;;;;2.95;1.38;;;6.00;99.90;;;;;;4965856;28;20532;-63
2021/04/28 06:07:21;;;;;;;3.28;1.13;;;6.00;99.90;;;;;;4961212;28;20086;-62
2021/04/28 06:09:47;;;;;;;3.08;1.30;;;5.90;99.90;;;;;;4950997;28;20039;-64
2021/04/28 06:12:14;;;;;;;4.05;1.77;;;5.90;99.90;;;;;;4963047;28;20492;-63
2021/04/28 06:14:40;;;;;;;3.88;2.28;;;6.00;99.90;;;;;;4965388;28;20106;-62
2021/04/28 06:17:06;;;;;;;1.50;1.40;;;6.00;99.90;;;;;;4966018;28;20058;-64
2021/04/28 06:19:34;;;;;;;3.08;1.98;;;6.00;99.90;;;;;;4964468;28;20117;-66
2021/04/28 06:22:00;;;;;;;3.25;1.60;;;6.10;99.90;;;;;;4947547;28;20085;-64
2021/04/28 06:24:32;;;;;;;2.83;1.75;;;6.20;99.90;;;;;;4966958;28;20053;-63
2021/04/28 06:26:58;;;;;;;2.30;1.95;;;6.20;99.90;;;;;;4963591;28;20055;-64
2021/04/28 06:29:25;;;;;;;2.05;1.70;;;6.20;99.90;;;;;;4963554;28;20066;-63
2021/04/28 06:31:51;;;;;;;8.55;2.28;;;6.30;99.90;;;;;;4966114;28;20109;-63
2021/04/28 06:34:18;;;;;;;4.47;2.80;;;6.30;99.90;;;;;;4965634;28;20098;-63
2021/04/28 06:36:45;;;;;;;3.38;2.35;;;6.40;99.90;;;;;;4964715;28;20113;-63
2021/04/28 06:39:11;;;;;;;3.63;1.92;;;6.50;99.90;;;;;;4961111;28;20066;-64
2021/04/28 06:41:38;;;;;;;3.47;2.40;;;6.50;99.90;;;;;;4961163;28;20652;-63
2021/04/28 06:44:05;;;;;;;3.70;2.00;;;6.50;99.90;;;;;;4962171;28;20070;-65
2021/04/28 06:46:32;;;;;;;6.35;1.77;;;6.50;99.90;;;;;;4966008;28;20046;-64
2021/04/28 06:48:58;;;;;;;3.95;2.22;;;6.40;99.90;;;;;;4966674;28;20054;-66
2021/04/28 06:51:25;;;;;;;4.40;2.03;;;6.40;99.90;;;;;;4966123;28;20059;-65
2021/04/28 06:53:54;;;;;;;3.33;1.90;;;6.40;99.90;;;;;;4948428;28;20053;-65
2021/04/28 06:56:21;;;;;;;3.30;2.13;;;6.30;99.90;;;;;;4961637;28;20389;-64
2021/04/28 06:58:49;;;;;;;4.07;2.10;;;6.30;99.90;;;;;;4965192;28;20043;-63
2021/04/28 07:01:16;;;;;;;2.83;1.88;;;6.30;99.90;;;;;;4962605;28;20039;-62
2021/04/28 07:03:42;;;;;;;4.13;2.15;;;6.30;99.90;;;;;;4958159;28;20058;-59
2021/04/28 07:06:13;;;;;;;4.30;2.67;;;6.20;99.90;;;;;;4960256;28;20141;-65
2021/04/28 07:08:39;;;;;;;4.80;2.72;;;6.20;99.90;;;;;;4961422;28;20073;-63
2021/04/28 07:11:06;;;;;;;2.92;2.28;;;6.20;99.90;;;;;;4964818;28;20047;-63
2021/04/28 07:13:33;;;;;;;5.45;2.50;;;6.30;99.90;;;;;;4959896;28;20396;-62
2021/04/28 07:15:59;;;;;;;4.00;2.10;;;6.30;99.90;;;;;;4962249;28;20142;-62
2021/04/28 07:18:26;;;;;;;6.80;2.33;;;6.30;99.90;;;;;;4964791;28;20125;-63
2021/04/28 07:20:53;;;;;;;9.77;3.72;;;6.30;99.90;;;;;;4963856;28;20050;-63
2021/04/28 07:23:19;;;;;;;2.95;2.35;;;6.30;99.90;;;;;;4962830;28;20425;-63
2021/04/28 07:25:46;;;;;;;3.00;2.75;;;6.30;99.90;;;;;;4961899;28;20129;-64
2021/04/28 07:28:12;;;;;;;5.07;3.10;;;6.30;99.90;;;;;;4961024;28;20069;-63
2021/04/28 07:30:39;;;;;;;7.07;2.90;;;6.30;99.90;;;;;;4963679;28;20050;-63
2021/04/28 07:33:05;;;;;;;4.40;2.50;;;6.40;99.90;;;;;;4965516;28;20112;-63
2021/04/28 07:35:32;;;;;;;3.70;2.90;;;6.40;99.90;;;;;;4962031;28;20074;-66
2021/04/28 07:37:59;;;;;;;6.30;3.00;;;6.40;99.90;;;;;;4964918;28;20054;-63
2021/04/28 07:40:30;;;;;;;2.95;2.58;;;6.40;99.90;;;;;;4961409;28;20047;-63
2021/04/28 07:42:56;;;;;;;4.50;2.75;;;6.40;99.90;;;;;;4964532;28;20183;-66
2021/04/28 07:45:23;;;;;;;2.80;2.30;;;6.50;99.90;;;;;;4962833;28;20058;-64
2021/04/28 07:47:49;;;;;;;4.05;2.97;;;6.60;99.90;;;;;;4965793;28;20046;-66
2021/04/28 07:50:17;;;;;;;4.85;3.00;;;6.60;99.90;;;;;;4963435;28;20149;-67
2021/04/28 07:52:48;;;;;;;8.15;3.63;;;6.60;99.90;;;;;;4969626;28;20058;-64
2021/04/28 07:55:16;;;;;;;9.68;3.20;;;6.50;99.90;;;;;;4963464;28;20117;-65
2021/04/28 07:57:43;;;;;;;3.30;2.75;;;6.60;99.90;;;;;;4967509;28;20432;-64
2021/04/28 08:00:11;;;;;;;4.95;2.70;;;6.80;99.90;;;;;;4964993;28;20055;-64
2021/04/28 08:02:41;;;;;;;4.75;3.13;;;6.70;99.90;;;;;;4965379;28;20067;-64
2021/04/28 08:05:08;;;;;;;7.05;2.75;;;6.80;99.90;;;;;;4964407;28;20063;-64
2021/04/28 08:07:35;;;;;;;5.35;2.40;;;6.90;99.90;;;;;;4964361;28;20077;-63
2021/04/28 08:10:06;;;;;;;5.13;2.70;;;6.90;99.90;;;;;;4964251;28;20121;-65
2021/04/28 08:12:33;;;;;;;5.25;2.40;;;7.00;99.90;;;;;;4962516;28;20047;-64
2021/04/28 08:15:00;;;;;;;6.15;3.50;;;6.90;99.90;;;;;;4962821;28;20515;-67
2021/04/28 08:17:29;;;;;;;5.72;2.42;;;6.90;99.90;;;;;;4962009;28;20047;-63
2021/04/28 08:19:57;;;;;;;6.32;3.03;;;6.90;99.90;;;;;;4964746;28;20062;-63
2021/04/28 08:22:24;;;;;;;6.90;3.58;;;6.90;99.90;;;;;;4963683;28;20057;-64
2021/04/28 08:24:52;;;;;;;6.85;3.58;;;6.90;99.90;;;;;;4963177;28;20058;-63
2021/04/28 08:27:19;;;;;;;4.82;2.47;;;7.00;99.90;;;;;;4965473;28;20484;-65
2021/04/28 08:29:45;;;;;;;3.25;2.95;;;7.10;99.90;;;;;;4967668;28;20058;-66
2021/04/28 08:32:12;;;;;;;3.80;2.40;;;7.20;99.90;;;;;;4969370;28;20070;-64
2021/04/28 08:34:38;;;;;;;4.78;2.70;;;7.30;99.90;;;;;;4966767;28;20049;-63
2021/04/28 08:37:07;;;;;;;4.15;2.75;;;7.40;99.90;;;;;;4972096;28;20113;-65
2021/04/28 08:39:33;;;;;;;3.15;2.70;;;7.20;99.90;;;;;;4966899;28;20059;-65
2021/04/28 08:42:00;;;;;;;4.10;2.70;;;7.30;99.90;;;;;;4970554;28;20046;-66
2021/04/28 08:44:29;;;;;;;4.32;3.92;;;7.20;99.90;;;;;;4966976;28;20169;-64
2021/04/28 08:46:56;;;;;;;3.53;2.67;;;7.20;99.90;;;;;;4969566;28;20125;-67
2021/04/28 08:49:24;;;;;;;5.22;2.47;;;7.20;99.90;;;;;;4964617;28;20075;-63
2021/04/28 08:51:52;;;;;;;3.65;2.85;;;7.10;99.90;;;;;;4971137;28;20493;-64
2021/04/28 08:54:21;;;;;;;4.57;3.53;;;7.10;99.90;;;;;;4967216;28;20082;-66
2021/04/28 08:56:52;;;;;;;3.08;2.60;;;7.10;99.90;;;;;;4970534;28;20647;-65
2021/04/28 08:59:19;;;;;;;9.40;4.80;;;7.30;99.90;;;;;;4964567;28;20059;-63
2021/04/28 09:01:47;;;;;;;6.43;2.95;;;7.30;99.90;;;;;;4970214;28;20157;-63
2021/04/28 09:04:16;;;;;;;4.05;2.85;;;7.30;99.90;;;;;;4966510;28;20046;-64
2021/04/28 09:06:43;;;;;;;11.25;5.75;;;7.20;99.90;;;;;;4970286;28;20051;-63
2021/04/28 09:09:15;;;;;;;8.48;3.72;;;7.20;99.90;;;;;;4966524;28;20070;-63
2021/04/28 09:11:43;;;;;;;5.50;2.88;;;7.20;99.90;;;;;;4966337;28;20133;-64
2021/04/28 09:14:21;;;;;;;4.20;3.45;;;7.20;99.90;;;;;;4965373;28;20066;-64
2021/04/28 09:17:02;;;;;;;10.35;3.50;;;7.20;99.90;;;;;;4966815;28;20127;-63
2021/04/28 09:19:55;;;;;;;4.63;2.97;;;7.20;99.90;;;;;;4965628;28;20412;-65
2021/04/28 09:22:47;;;;;;;3.50;2.88;;;7.20;99.90;;;;;;4964725;28;20144;-65
2021/04/28 09:25:38;;;;;;;4.70;2.83;;;7.10;99.90;;;;;;4965133;28;20050;-63
2021/04/28 09:28:31;;;;;;;4.32;2.50;;;7.20;99.90;;;;;;4966741;28;20053;-64
2021/04/28 09:31:07;;;;;;;3.40;2.55;;;7.20;99.90;;;;;;4968011;28;20546;-65
2021/04/28 09:33:51;;;;;;;4.03;2.70;;;7.20;99.90;;;;;;4963467;28;20449;-64
2021/04/28 09:36:25;;;;;;;5.90;2.65;;;7.30;99.90;;;;;;4972860;28;20138;-68
2021/04/28 09:38:55;;;;;;;9.02;3.97;;;7.30;99.90;;;;;;4965838;28;20464;-64
2021/04/28 09:41:41;;;;;;;4.72;3.80;;;7.20;99.90;;;;;;4967725;28;20046;-65
2021/04/28 09:44:20;;;;;;;6.32;3.50;;;7.20;99.90;;;;;;4966235;28;20154;-61
2021/04/28 09:47:05;;;;;;;3.22;2.38;;;7.30;99.90;;;;;;4968734;28;20482;-61
2021/04/28 09:49:59;;;;;;;3.70;3.20;;;7.20;99.90;;;;;;4964674;28;20077;-60
2021/04/28 09:52:29;;;;;;;4.05;3.13;;;7.50;99.90;;;;;;4966345;28;20047;-64
2021/04/28 09:55:01;;;;;;;3.28;2.83;;;7.60;99.90;;;;;;4966962;28;20050;-64
2021/04/28 09:57:46;;;;;;;6.63;3.25;;;7.80;99.90;;;;;;4963646;28;20429;-65
2021/04/28 10:00:23;;;;;;;3.33;3.00;;;7.90;99.90;;;;;;4967611;28;20055;-66
2021/04/28 10:02:52;;;;;;;4.55;2.22;;;7.60;99.90;;;;;;4961609;28;20060;-66
2021/04/28 10:05:24;;;;;;;4.70;2.60;;;7.60;99.90;;;;;;4963660;28;20612;-66
2021/04/28 10:08:13;;;;;;;6.60;2.80;;;7.80;99.90;;;;;;4964305;28;20500;-65
2021/04/28 10:10:41;;;;;;;4.40;2.35;;;7.70;99.90;;;;;;4970471;28;20143;-65
2021/04/28 10:13:12;;;;;;;3.40;2.45;;;7.50;99.90;;;;;;4963061;28;20123;-68
2021/04/28 10:15:38;;;;;;;2.58;2.38;;;7.50;99.90;;;;;;4963681;28;20517;-65
2021/04/28 10:18:07;;;;;;;5.60;2.10;;;7.50;99.90;;;;;;4963837;28;20081;-65
2021/04/28 10:20:36;;;;;;;3.45;2.20;;;7.70;99.90;;;;;;4964016;28;20438;-68
2021/04/28 10:23:07;;;;;;;3.95;2.30;;;7.80;99.90;;;;;;4963795;28;20070;-65
2021/04/28 10:25:37;;;;;;;2.78;2.05;;;7.80;99.90;;;;;;4966907;28;20069;-67
2021/04/28 10:28:06;;;;;;;2.40;2.15;;;7.60;99.90;;;;;;4963667;28;20081;-66
2021/04/28 10:30:40;;;;;;;3.93;2.83;;;7.50;99.90;;;;;;4965270;28;20125;-66
2021/04/28 10:33:08;;;;;;;3.30;1.90;;;7.70;99.90;;;;;;4962413;28;20110;-65
2021/04/28 10:35:35;;;;;;;3.70;2.13;;;7.80;99.90;;;;;;4964751;28;20078;-65
2021/04/28 10:38:02;;;;;;;3.88;2.28;;;7.60;99.90;;;;;;4961791;28;20094;-67
2021/04/28 10:40:29;;;;;;;3.63;2.72;;;7.60;99.90;;;;;;4963694;28;20464;-64
2021/04/28 10:43:09;;;;;;;3.03;2.25;;;7.60;99.90;;;;;;4962805;28;20598;-63
2021/04/28 10:45:38;;;;;;;5.22;2.50;;;7.70;99.90;;;;;;4961613;28;20130;-62
2021/04/28 10:48:41;;;;;;;3.80;2.45;;;7.60;99.90;;;;;;4963608;28;20043;-61
2021/04/28 10:51:08;;;;;;;6.55;3.42;;;7.70;99.90;;;;;;4964353;28;20109;-65
2021/04/28 10:53:34;;;;;;;2.55;2.35;;;8.00;99.90;;;;;;4962954;28;20062;-64
2021/04/28 10:56:13;;;;;;;6.22;2.83;;;8.10;99.90;;;;;;4963847;28;20144;-63
2021/04/28 10:58:44;;;;;;;5.38;2.97;;;8.10;99.90;;;;;;4963417;28;20066;-64
2021/04/28 11:01:16;;;;;;;3.92;2.22;;;8.00;99.90;;;;;;4968728;28;20043;-61
2021/04/28 11:03:55;;;;;;;2.90;2.10;;;7.70;99.90;;;;;;4961736;28;20675;-62
2021/04/28 11:06:23;;;;;;;4.40;3.10;;;7.50;99.90;;;;;;4961383;28;20077;-64
2021/04/28 11:08:49;;;;;;;3.70;2.35;;;7.60;99.90;;;;;;4965110;28;20142;-64
2021/04/28 11:11:31;;;;;;;2.90;2.47;;;7.50;99.90;;;;;;4962272;28;20404;-62
2021/04/28 11:14:10;;;;;;;4.47;2.83;;;7.50;99.90;;;;;;4963334;28;20133;-63
2021/04/28 11:16:57;;;;;;;2.95;2.40;;;7.60;99.90;;;;;;4961734;28;20517;-64
2021/04/28 11:19:27;;;;;;;3.92;2.88;;;7.60;99.90;;;;;;4961995;28;20043;-63
2021/04/28 11:22:18;;;;;;;2.65;2.45;;;7.70;99.90;;;;;;4962504;28;20054;-64
2021/04/28 11:24:57;;;;;;;4.65;2.50;;;7.80;99.90;;;;;;4962924;28;20054;-63
2021/04/28 11:27:44;;;;;;;3.08;2.55;;;7.80;99.90;;;;;;4961344;28;20461;-64
2021/04/28 11:30:21;;;;;;;5.43;2.58;;;7.80;99.90;;;;;;4964967;28;20113;-63
2021/04/28 11:33:10;;;;;;;4.10;2.83;;;7.90;99.90;;;;;;4961220;28;21321;-63
2021/04/28 11:35:40;;;;;;;2.67;2.40;;;8.00;99.90;;;;;;4966140;28;20097;-64
2021/04/28 11:38:11;;;;;;;4.60;2.60;;;8.10;99.90;;;;;;4963170;28;20034;-63
2021/04/28 11:41:03;;;;;;;4.43;2.22;;;8.10;99.90;;;;;;4967581;28;20736;-62
2021/04/28 11:43:48;;;;;;;4.28;2.72;;;8.20;99.90;;;;;;4959701;28;20118;-67
2021/04/28 11:46:18;;;;;;;4.30;2.60;;;8.60;99.90;;;;;;4963653;28;20078;-66
2021/04/28 11:48:46;;;;;;;4.43;1.92;;;8.70;99.90;;;;;;4965133;28;20050;-63
2021/04/28 11:51:26;;;;;;;4.25;1.70;;;8.60;99.90;;;;;;4961104;28;20137;-64
2021/04/28 11:53:59;;;;;;;4.47;1.98;;;8.50;99.90;;;;;;4947539;28;20047;-63
2021/04/28 11:56:36;;;;;;;4.22;1.55;;;8.30;99.90;;;;;;4963384;28;20047;-63
2021/04/28 11:59:17;;;;;;;5.35;1.92;;;8.10;99.90;;;;;;4967088;28;20063;-62
2021/04/28 12:01:43;;;;;;;4.63;2.03;;;8.00;99.90;;;;;;4960964;28;20681;-63
2021/04/28 12:04:11;;;;;;;5.68;2.00;;;7.90;99.90;;;;;;4964157;28;20128;-65
2021/04/28 12:06:44;;;;;;;4.13;1.60;;;7.90;99.90;;;;;;4963419;28;20066;-63
2021/04/28 12:09:38;;;;;;;2.65;1.45;;;8.00;99.90;;;;;;4964443;28;20331;-65
2021/04/28 12:12:13;;;;;;;3.70;1.77;;;8.00;99.90;;;;;;4962842;28;20442;-64
2021/04/28 12:14:46;;;;;;;2.47;2.15;;;8.10;99.90;;;;;;4961252;28;20093;-64
2021/04/28 12:17:12;;;;;;;2.75;1.60;;;8.20;99.90;;;;;;4945871;28;20055;-66
2021/04/28 12:19:44;;;;;;;1.67;1.58;;;8.50;99.90;;;;;;4960543;28;20527;-63
2021/04/28 12:22:10;;;;;;;5.63;1.20;;;8.80;99.90;;;;;;4962386;28;20058;-62
2021/04/28 12:24:43;;;;;;;2.47;1.40;;;8.70;99.90;;;;;;4948303;28;20050;-66
2021/04/28 12:27:13;;;;;;;2.88;1.30;;;8.70;99.90;;;;;;4964717;28;20046;-64
2021/04/28 12:29:53;;;;;;;3.65;1.48;;;8.70;99.90;;;;;;4963999;28;20046;-63
2021/04/28 12:32:22;;;;;;;1.75;1.50;;;8.60;99.90;;;;;;4963519;28;20078;-64
2021/04/28 12:34:49;;;;;;;4.05;1.98;;;8.30;99.90;;;;;;4956630;28;20062;-65
2021/04/28 12:37:23;;;;;;;3.92;1.70;;;8.30;99.90;;;;;;4961610;28;20057;-65
2021/04/28 12:39:53;;;;;;;3.88;2.15;;;8.10;99.90;;;;;;4959265;28;20074;-64
2021/04/28 12:42:25;;;;;;;3.55;1.58;;;7.90;99.90;;;;;;4962386;28;20059;-66
2021/04/28 12:44:52;;;;;;;4.55;2.30;;;7.90;99.90;;;;;;4955957;28;20077;-63
2021/04/28 12:47:27;;;;;;;3.92;1.75;;;7.90;99.90;;;;;;4965140;28;20145;-63
2021/04/28 12:50:03;;;;;;;2.78;1.55;;;8.00;99.90;;;;;;4960685;28;20062;-63
2021/04/28 12:52:38;;;;;;;1.55;1.45;;;8.00;99.90;;;;;;4963607;28;20149;-64
2021/04/28 12:55:24;;;;;;;7.13;1.40;;;8.10;99.90;;;;;;4960311;28;20058;-66
2021/04/28 12:58:09;;;;;;;3.65;2.05;;;8.10;99.90;;;;;;4954992;28;20051;-65
2021/04/28 13:00:41;;;;;;;3.38;1.38;;;8.10;99.90;;;;;;4961813;28;20054;-65
2021/04/28 13:03:12;;;;;;;5.68;1.85;;;8.10;99.90;;;;;;4960077;28;20895;-62
2021/04/28 13:05:43;;;;;;;2.05;1.63;;;8.10;99.90;;;;;;4957907;28;20046;-65
2021/04/28 13:08:32;;;;;;;4.85;2.05;;;8.30;99.90;;;;;;4961954;28;20054;-63
2021/04/28 13:11:24;;;;;;;2.08;1.48;;;8.30;99.90;;;;;;4960824;28;20508;-67
2021/04/28 13:13:56;;;;;;;2.83;1.77;;;8.20;99.90;;;;;;4962880;28;20074;-63
2021/04/28 13:16:37;;;;;;;2.95;2.08;;;8.10;99.90;;;;;;4963347;28;20043;-63
2021/04/28 13:19:11;;;;;;;3.17;1.50;;;8.10;99.90;;;;;;4969936;28;20560;-64
2021/04/28 13:21:59;;;;;;;1.95;1.70;;;8.20;99.90;;;;;;4963491;28;20548;-61